sensor_id;sensor_type;location;lat;lon;timestamp;temperature;humidity
40257;DHT22;25977;45.462;9.210;2023-03-23T00:01:08;18.00;53.50
40257;DHT22;25977;45.462;9.210;2023-03-23T00:03:38;18.00;53.70
40257;DHT22;25977;45.462;9.210;2023-03-23T00:06:05;17.90;53.80
40257;DHT22;25977;45.462;9.210;2023-03-23T00:08:38;17.90;53.70
40257;DHT22;25977;45.462;9.210;2023-03-23T00:11:21;17.90;54.00
40257;DHT22;25977;45.462;9.210;2023-03-23T00:13:48;17.90;54.00
40257;DHT22;25977;45.462;9.210;2023-03-23T00:16:20;17.60;54.00
40257;DHT22;25977;45.462;9.210;2023-03-23T00:18:47;17.70;54.20
40257;DHT22;25977;45.462;9.210;2023-03-23T00:21:15;17.70;54.40
40257;DHT22;25977;45.462;9.210;2023-03-23T00:23:40;17.70;54.40
40257;DHT22;25977;45.462;9.210;2023-03-23T00:26:10;17.60;54.40
40257;DHT22;25977;45.462;9.210;2023-03-23T00:28:36;17.80;54.50
40257;DHT22;25977;45.462;9.210;2023-03-23T00:31:07;17.80;54.60
40257;DHT22;25977;45.462;9.210;2023-03-23T00:33:36;17.70;54.70
40257;DHT22;25977;45.462;9.210;2023-03-23T00:36:10;17.70;54.80
40257;DHT22;25977;45.462;9.210;2023-03-23T00:38:38;17.70;55.00
40257;DHT22;25977;45.462;9.210;2023-03-23T00:41:05;17.70;55.00
40257;DHT22;25977;45.462;9.210;2023-03-23T00:43:32;17.70;55.10
40257;DHT22;25977;45.462;9.210;2023-03-23T00:46:02;17.70;55.10
40257;DHT22;25977;45.462;9.210;2023-03-23T00:48:29;17.80;55.20
40257;DHT22;25977;45.462;9.210;2023-03-23T00:50:55;18.00;55.40
40257;DHT22;25977;45.462;9.210;2023-03-23T00:53:22;18.00;55.50
40257;DHT22;25977;45.462;9.210;2023-03-23T00:55:49;17.60;55.40
40257;DHT22;25977;45.462;9.210;2023-03-23T00:58:15;17.70;55.50
40257;DHT22;25977;45.462;9.210;2023-03-23T01:00:41;17.60;55.40
40257;DHT22;25977;45.462;9.210;2023-03-23T01:03:08;17.60;55.50
40257;DHT22;25977;45.462;9.210;2023-03-23T01:05:39;17.70;55.60
40257;DHT22;25977;45.462;9.210;2023-03-23T01:08:06;17.60;55.60
40257;DHT22;25977;45.462;9.210;2023-03-23T01:10:33;17.60;55.60
40257;DHT22;25977;45.462;9.210;2023-03-23T01:12:59;17.60;55.60
40257;DHT22;25977;45.462;9.210;2023-03-23T01:15:27;17.60;55.70
40257;DHT22;25977;45.462;9.210;2023-03-23T01:17:53;17.60;55.70
40257;DHT22;25977;45.462;9.210;2023-03-23T01:20:19;17.50;55.70
40257;DHT22;25977;45.462;9.210;2023-03-23T01:22:45;17.50;55.80
40257;DHT22;25977;45.462;9.210;2023-03-23T01:25:12;17.50;55.90
40257;DHT22;25977;45.462;9.210;2023-03-23T01:27:39;17.40;56.10
40257;DHT22;25977;45.462;9.210;2023-03-23T01:30:08;17.40;56.20
40257;DHT22;25977;45.462;9.210;2023-03-23T01:32:36;17.40;56.30
40257;DHT22;25977;45.462;9.210;2023-03-23T01:35:01;17.40;56.40
40257;DHT22;25977;45.462;9.210;2023-03-23T01:37:27;17.40;56.40
40257;DHT22;25977;45.462;9.210;2023-03-23T01:39:55;17.50;56.50
40257;DHT22;25977;45.462;9.210;2023-03-23T01:42:25;17.40;56.50
40257;DHT22;25977;45.462;9.210;2023-03-23T01:47:21;17.30;57.30
40257;DHT22;25977;45.462;9.210;2023-03-23T01:49:49;17.70;57.10
40257;DHT22;25977;45.462;9.210;2023-03-23T01:52:22;17.80;57.30
40257;DHT22;25977;45.462;9.210;2023-03-23T01:54:52;17.30;57.20
40257;DHT22;25977;45.462;9.210;2023-03-23T01:57:20;17.30;57.30
40257;DHT22;25977;45.462;9.210;2023-03-23T01:59:49;17.30;57.40
40257;DHT22;25977;45.462;9.210;2023-03-23T02:02:21;17.20;57.40
40257;DHT22;25977;45.462;9.210;2023-03-23T02:04:48;17.30;57.60
40257;DHT22;25977;45.462;9.210;2023-03-23T02:07:18;17.20;57.70
40257;DHT22;25977;45.462;9.210;2023-03-23T02:09:47;17.50;57.90
40257;DHT22;25977;45.462;9.210;2023-03-23T02:12:14;17.20;57.80
40257;DHT22;25977;45.462;9.210;2023-03-23T02:14:40;17.20;57.90
40257;DHT22;25977;45.462;9.210;2023-03-23T02:17:22;17.20;58.00
40257;DHT22;25977;45.462;9.210;2023-03-23T02:20:21;17.20;58.00
40257;DHT22;25977;45.462;9.210;2023-03-23T02:23:13;17.20;58.10
40257;DHT22;25977;45.462;9.210;2023-03-23T02:28:41;17.20;58.10
40257;DHT22;25977;45.462;9.210;2023-03-23T02:31:16;17.20;58.20
40257;DHT22;25977;45.462;9.210;2023-03-23T02:33:50;17.20;58.20
40257;DHT22;25977;45.462;9.210;2023-03-23T02:36:56;17.20;58.30
40257;DHT22;25977;45.462;9.210;2023-03-23T02:39:39;17.20;58.40
40257;DHT22;25977;45.462;9.210;2023-03-23T02:42:08;17.10;58.40
40257;DHT22;25977;45.462;9.210;2023-03-23T02:44:37;17.30;58.60
40257;DHT22;25977;45.462;9.210;2023-03-23T02:47:09;17.10;58.60
40257;DHT22;25977;45.462;9.210;2023-03-23T02:49:37;17.10;58.60
40257;DHT22;25977;45.462;9.210;2023-03-23T02:52:09;17.10;58.60
40257;DHT22;25977;45.462;9.210;2023-03-23T02:54:40;17.10;58.70
40257;DHT22;25977;45.462;9.210;2023-03-23T02:57:08;17.10;58.90
40257;DHT22;25977;45.462;9.210;2023-03-23T02:59:39;17.00;58.90
40257;DHT22;25977;45.462;9.210;2023-03-23T03:04:34;17.10;59.10
40257;DHT22;25977;45.462;9.210;2023-03-23T03:07:10;17.10;59.20
40257;DHT22;25977;45.462;9.210;2023-03-23T03:10:08;17.10;59.20
40257;DHT22;25977;45.462;9.210;2023-03-23T03:12:46;17.10;59.20
40257;DHT22;25977;45.462;9.210;2023-03-23T03:18:16;17.00;59.40
40257;DHT22;25977;45.462;9.210;2023-03-23T03:20:49;17.00;59.40
40257;DHT22;25977;45.462;9.210;2023-03-23T03:23:17;17.00;59.40
40257;DHT22;25977;45.462;9.210;2023-03-23T03:25:46;16.90;59.60
40257;DHT22;25977;45.462;9.210;2023-03-23T03:28:21;17.00;59.70
40257;DHT22;25977;45.462;9.210;2023-03-23T03:30:55;17.00;59.80
40257;DHT22;25977;45.462;9.210;2023-03-23T03:33:22;16.90;59.80
40257;DHT22;25977;45.462;9.210;2023-03-23T03:35:55;16.90;59.80
40257;DHT22;25977;45.462;9.210;2023-03-23T03:38:22;16.90;59.80
40257;DHT22;25977;45.462;9.210;2023-03-23T03:40:50;16.90;60.50
40257;DHT22;25977;45.462;9.210;2023-03-23T03:43:16;17.00;60.00
40257;DHT22;25977;45.462;9.210;2023-03-23T03:45:42;16.90;60.00
40257;DHT22;25977;45.462;9.210;2023-03-23T03:48:08;16.90;60.10
40257;DHT22;25977;45.462;9.210;2023-03-23T03:50:34;16.80;60.20
40257;DHT22;25977;45.462;9.210;2023-03-23T03:53:00;16.80;60.20
40257;DHT22;25977;45.462;9.210;2023-03-23T03:55:26;16.80;60.20
40257;DHT22;25977;45.462;9.210;2023-03-23T03:57:54;17.10;60.40
40257;DHT22;25977;45.462;9.210;2023-03-23T04:00:46;16.80;60.20
40257;DHT22;25977;45.462;9.210;2023-03-23T04:03:17;16.80;60.30
40257;DHT22;25977;45.462;9.210;2023-03-23T04:05:54;16.80;60.30
40257;DHT22;25977;45.462;9.210;2023-03-23T04:08:22;16.80;60.40
40257;DHT22;25977;45.462;9.210;2023-03-23T04:10:48;16.80;60.40
40257;DHT22;25977;45.462;9.210;2023-03-23T04:13:14;16.80;60.60
40257;DHT22;25977;45.462;9.210;2023-03-23T04:15:59;16.80;60.80
40257;DHT22;25977;45.462;9.210;2023-03-23T04:18:26;16.70;61.00
40257;DHT22;25977;45.462;9.210;2023-03-23T04:20:53;16.80;61.10
40257;DHT22;25977;45.462;9.210;2023-03-23T04:23:21;16.80;61.30
40257;DHT22;25977;45.462;9.210;2023-03-23T04:25:50;16.80;61.50
40257;DHT22;25977;45.462;9.210;2023-03-23T04:28:18;16.80;61.80
40257;DHT22;25977;45.462;9.210;2023-03-23T04:31:04;16.80;61.90
40257;DHT22;25977;45.462;9.210;2023-03-23T04:33:30;16.80;62.10
40257;DHT22;25977;45.462;9.210;2023-03-23T04:36:00;16.50;62.10
40257;DHT22;25977;45.462;9.210;2023-03-23T04:38:43;16.70;62.40
40257;DHT22;25977;45.462;9.210;2023-03-23T04:41:16;16.70;62.60
40257;DHT22;25977;45.462;9.210;2023-03-23T04:43:49;16.70;62.70
40257;DHT22;25977;45.462;9.210;2023-03-23T04:46:25;16.80;62.90
40257;DHT22;25977;45.462;9.210;2023-03-23T04:48:54;16.70;62.90
40257;DHT22;25977;45.462;9.210;2023-03-23T04:51:26;16.70;63.00
40257;DHT22;25977;45.462;9.210;2023-03-23T04:53:53;16.40;63.60
40257;DHT22;25977;45.462;9.210;2023-03-23T04:56:19;16.50;63.60
40257;DHT22;25977;45.462;9.210;2023-03-23T04:58:47;16.50;63.70
40257;DHT22;25977;45.462;9.210;2023-03-23T05:01:29;16.50;63.80
40257;DHT22;25977;45.462;9.210;2023-03-23T05:04:09;16.50;63.80
40257;DHT22;25977;45.462;9.210;2023-03-23T05:06:35;16.50;63.90
40257;DHT22;25977;45.462;9.210;2023-03-23T05:09:08;16.50;64.10
40257;DHT22;25977;45.462;9.210;2023-03-23T05:11:35;16.50;64.20
40257;DHT22;25977;45.462;9.210;2023-03-23T05:14:02;16.50;64.20
40257;DHT22;25977;45.462;9.210;2023-03-23T05:16:28;16.50;64.30
40257;DHT22;25977;45.462;9.210;2023-03-23T05:18:55;16.50;64.40
40257;DHT22;25977;45.462;9.210;2023-03-23T05:21:23;16.50;64.50
40257;DHT22;25977;45.462;9.210;2023-03-23T05:23:52;16.50;64.50
40257;DHT22;25977;45.462;9.210;2023-03-23T05:26:21;16.60;64.60
40257;DHT22;25977;45.462;9.210;2023-03-23T05:28:50;16.50;64.60
40257;DHT22;25977;45.462;9.210;2023-03-23T05:31:34;16.50;64.60
40257;DHT22;25977;45.462;9.210;2023-03-23T05:33:59;16.50;64.60
40257;DHT22;25977;45.462;9.210;2023-03-23T05:36:30;16.50;64.70
40257;DHT22;25977;45.462;9.210;2023-03-23T05:39:07;16.50;64.70
40257;DHT22;25977;45.462;9.210;2023-03-23T05:42:04;16.50;64.70
40257;DHT22;25977;45.462;9.210;2023-03-23T05:44:43;16.50;64.70
40257;DHT22;25977;45.462;9.210;2023-03-23T05:47:10;16.50;64.50
40257;DHT22;25977;45.462;9.210;2023-03-23T05:49:39;16.50;64.60
40257;DHT22;25977;45.462;9.210;2023-03-23T05:52:09;16.50;64.60
40257;DHT22;25977;45.462;9.210;2023-03-23T05:54:34;16.40;64.70
40257;DHT22;25977;45.462;9.210;2023-03-23T05:57:01;16.80;65.10
40257;DHT22;25977;45.462;9.210;2023-03-23T05:59:44;16.40;64.90
40257;DHT22;25977;45.462;9.210;2023-03-23T06:02:16;16.50;65.00
40257;DHT22;25977;45.462;9.210;2023-03-23T06:04:42;16.30;64.90
40257;DHT22;25977;45.462;9.210;2023-03-23T06:07:15;16.40;65.10
40257;DHT22;25977;45.462;9.210;2023-03-23T06:09:52;16.40;65.20
40257;DHT22;25977;45.462;9.210;2023-03-23T06:12:23;16.60;65.70
40257;DHT22;25977;45.462;9.210;2023-03-23T06:15:16;16.50;65.70
40257;DHT22;25977;45.462;9.210;2023-03-23T06:18:10;16.50;65.70
40257;DHT22;25977;45.462;9.210;2023-03-23T06:20:46;16.50;65.70
40257;DHT22;25977;45.462;9.210;2023-03-23T06:23:24;16.60;65.80
40257;DHT22;25977;45.462;9.210;2023-03-23T06:25:57;16.60;65.80
40257;DHT22;25977;45.462;9.210;2023-03-23T06:28:23;16.60;65.90
40257;DHT22;25977;45.462;9.210;2023-03-23T06:30:50;16.60;66.00
40257;DHT22;25977;45.462;9.210;2023-03-23T06:33:16;16.60;65.70
40257;DHT22;25977;45.462;9.210;2023-03-23T06:36:11;16.70;66.00
40257;DHT22;25977;45.462;9.210;2023-03-23T06:38:52;16.70;65.90
40257;DHT22;25977;45.462;9.210;2023-03-23T06:41:24;17.00;66.30
40257;DHT22;25977;45.462;9.210;2023-03-23T06:43:51;16.90;66.00
40257;DHT22;25977;45.462;9.210;2023-03-23T06:46:23;16.80;65.90
40257;DHT22;25977;45.462;9.210;2023-03-23T06:48:56;17.00;65.80
40257;DHT22;25977;45.462;9.210;2023-03-23T06:51:33;16.80;65.70
40257;DHT22;25977;45.462;9.210;2023-03-23T06:53:58;16.80;65.70
40257;DHT22;25977;45.462;9.210;2023-03-23T06:56:27;16.90;65.80
40257;DHT22;25977;45.462;9.210;2023-03-23T06:58:52;16.90;65.80
40257;DHT22;25977;45.462;9.210;2023-03-23T07:01:19;16.90;65.60
40257;DHT22;25977;45.462;9.210;2023-03-23T07:03:53;17.00;65.60
40257;DHT22;25977;45.462;9.210;2023-03-23T07:06:27;17.10;65.70
40257;DHT22;25977;45.462;9.210;2023-03-23T07:08:57;17.20;65.50
40257;DHT22;25977;45.462;9.210;2023-03-23T07:11:26;17.30;65.20
40257;DHT22;25977;45.462;9.210;2023-03-23T07:13:53;17.40;64.70
40257;DHT22;25977;45.462;9.210;2023-03-23T07:16:19;17.60;64.70
40257;DHT22;25977;45.462;9.210;2023-03-23T07:18:46;17.80;64.20
40257;DHT22;25977;45.462;9.210;2023-03-23T07:21:12;17.90;63.70
40257;DHT22;25977;45.462;9.210;2023-03-23T07:23:39;17.90;63.80
40257;DHT22;25977;45.462;9.210;2023-03-23T07:26:09;18.10;64.20
40257;DHT22;25977;45.462;9.210;2023-03-23T07:28:42;17.80;64.00
40257;DHT22;25977;45.462;9.210;2023-03-23T07:31:19;17.90;64.10
40257;DHT22;25977;45.462;9.210;2023-03-23T07:33:46;17.70;64.00
40257;DHT22;25977;45.462;9.210;2023-03-23T07:36:12;17.70;64.30
40257;DHT22;25977;45.462;9.210;2023-03-23T07:38:38;17.60;64.50
40257;DHT22;25977;45.462;9.210;2023-03-23T07:41:05;17.60;64.60
40257;DHT22;25977;45.462;9.210;2023-03-23T07:43:31;17.50;64.40
40257;DHT22;25977;45.462;9.210;2023-03-23T07:46:09;17.50;64.50
40257;DHT22;25977;45.462;9.210;2023-03-23T07:48:44;17.40;64.60
40257;DHT22;25977;45.462;9.210;2023-03-23T07:51:10;17.40;65.00
40257;DHT22;25977;45.462;9.210;2023-03-23T07:53:37;17.30;65.00
40257;DHT22;25977;45.462;9.210;2023-03-23T07:56:15;17.30;65.10
40257;DHT22;25977;45.462;9.210;2023-03-23T07:59:03;17.20;65.30
40257;DHT22;25977;45.462;9.210;2023-03-23T08:01:30;17.20;65.50
40257;DHT22;25977;45.462;9.210;2023-03-23T08:04:17;17.10;65.50
40257;DHT22;25977;45.462;9.210;2023-03-23T08:07:05;17.10;65.70
40257;DHT22;25977;45.462;9.210;2023-03-23T08:09:43;17.00;65.80
40257;DHT22;25977;45.462;9.210;2023-03-23T08:12:31;17.10;65.80
40257;DHT22;25977;45.462;9.210;2023-03-23T08:15:27;17.10;65.90
40257;DHT22;25977;45.462;9.210;2023-03-23T08:18:12;17.10;66.00
40257;DHT22;25977;45.462;9.210;2023-03-23T08:20:57;17.10;66.10
40257;DHT22;25977;45.462;9.210;2023-03-23T08:23:39;17.10;66.10
40257;DHT22;25977;45.462;9.210;2023-03-23T08:26:28;17.20;66.20
40257;DHT22;25977;45.462;9.210;2023-03-23T08:29:14;17.20;66.20
40257;DHT22;25977;45.462;9.210;2023-03-23T08:32:01;17.30;66.00
40257;DHT22;25977;45.462;9.210;2023-03-23T08:34:53;17.30;65.90
40257;DHT22;25977;45.462;9.210;2023-03-23T08:37:43;17.40;65.80
40257;DHT22;25977;45.462;9.210;2023-03-23T08:40:37;17.60;65.70
40257;DHT22;25977;45.462;9.210;2023-03-23T08:43:20;17.40;65.60
40257;DHT22;25977;45.462;9.210;2023-03-23T08:46:19;17.40;65.80
40257;DHT22;25977;45.462;9.210;2023-03-23T08:49:09;17.40;65.80
40257;DHT22;25977;45.462;9.210;2023-03-23T08:51:53;17.40;65.90
40257;DHT22;25977;45.462;9.210;2023-03-23T08:54:32;17.40;65.90
40257;DHT22;25977;45.462;9.210;2023-03-23T08:57:02;17.40;65.90
40257;DHT22;25977;45.462;9.210;2023-03-23T08:59:53;17.50;66.10
40257;DHT22;25977;45.462;9.210;2023-03-23T09:02:41;17.60;66.20
40257;DHT22;25977;45.462;9.210;2023-03-23T09:05:20;17.70;66.00
40257;DHT22;25977;45.462;9.210;2023-03-23T09:08:03;17.80;66.00
40257;DHT22;25977;45.462;9.210;2023-03-23T09:10:29;17.90;65.90
40257;DHT22;25977;45.462;9.210;2023-03-23T09:12:55;18.00;65.80
40257;DHT22;25977;45.462;9.210;2023-03-23T09:15:22;18.00;66.40
40257;DHT22;25977;45.462;9.210;2023-03-23T09:17:50;18.20;67.20
40257;DHT22;25977;45.462;9.210;2023-03-23T09:20:19;18.30;66.30
40257;DHT22;25977;45.462;9.210;2023-03-23T09:22:48;18.30;67.30
40257;DHT22;25977;45.462;9.210;2023-03-23T09:25:15;18.50;67.80
40257;DHT22;25977;45.462;9.210;2023-03-23T09:27:44;18.50;65.70
40257;DHT22;25977;45.462;9.210;2023-03-23T09:30:13;18.60;65.50
40257;DHT22;25977;45.462;9.210;2023-03-23T09:32:40;18.70;65.40
40257;DHT22;25977;45.462;9.210;2023-03-23T09:35:09;18.80;65.30
40257;DHT22;25977;45.462;9.210;2023-03-23T09:37:37;18.80;65.00
40257;DHT22;25977;45.462;9.210;2023-03-23T09:40:06;18.90;64.60
40257;DHT22;25977;45.462;9.210;2023-03-23T09:45:19;18.80;64.00
40257;DHT22;25977;45.462;9.210;2023-03-23T09:50:31;19.10;64.50
40257;DHT22;25977;45.462;9.210;2023-03-23T09:53:08;18.90;64.20
40257;DHT22;25977;45.462;9.210;2023-03-23T09:55:35;19.10;64.20
40257;DHT22;25977;45.462;9.210;2023-03-23T10:01:00;19.10;63.80
40257;DHT22;25977;45.462;9.210;2023-03-23T10:03:37;19.10;64.00
40257;DHT22;25977;45.462;9.210;2023-03-23T10:06:05;19.20;64.00
40257;DHT22;25977;45.462;9.210;2023-03-23T10:08:33;19.20;63.90
40257;DHT22;25977;45.462;9.210;2023-03-23T10:11:10;19.30;63.90
40257;DHT22;25977;45.462;9.210;2023-03-23T10:14:07;19.30;63.80
40257;DHT22;25977;45.462;9.210;2023-03-23T10:16:40;19.40;63.50
40257;DHT22;25977;45.462;9.210;2023-03-23T10:19:28;19.40;63.50
40257;DHT22;25977;45.462;9.210;2023-03-23T10:22:04;19.40;63.50
40257;DHT22;25977;45.462;9.210;2023-03-23T10:24:43;19.40;63.50
40257;DHT22;25977;45.462;9.210;2023-03-23T10:27:18;19.40;63.50
40257;DHT22;25977;45.462;9.210;2023-03-23T10:30:19;19.40;63.70
40257;DHT22;25977;45.462;9.210;2023-03-23T10:32:52;19.40;63.70
40257;DHT22;25977;45.462;9.210;2023-03-23T10:35:44;19.40;63.70
40257;DHT22;25977;45.462;9.210;2023-03-23T10:38:22;19.50;63.90
40257;DHT22;25977;45.462;9.210;2023-03-23T10:40:54;19.50;63.60
40257;DHT22;25977;45.462;9.210;2023-03-23T10:43:21;19.50;64.30
40257;DHT22;25977;45.462;9.210;2023-03-23T10:46:01;19.50;63.90
40257;DHT22;25977;45.462;9.210;2023-03-23T10:48:33;19.60;63.60
40257;DHT22;25977;45.462;9.210;2023-03-23T10:51:03;19.60;63.70
40257;DHT22;25977;45.462;9.210;2023-03-23T10:53:34;19.70;63.70
40257;DHT22;25977;45.462;9.210;2023-03-23T10:56:00;19.70;63.50
40257;DHT22;25977;45.462;9.210;2023-03-23T10:58:28;19.70;63.60
40257;DHT22;25977;45.462;9.210;2023-03-23T11:00:55;19.80;63.70
40257;DHT22;25977;45.462;9.210;2023-03-23T11:03:32;19.80;63.60
40257;DHT22;25977;45.462;9.210;2023-03-23T11:06:05;19.80;63.50
40257;DHT22;25977;45.462;9.210;2023-03-23T11:08:37;19.90;63.30
40257;DHT22;25977;45.462;9.210;2023-03-23T11:11:11;19.90;63.50
40257;DHT22;25977;45.462;9.210;2023-03-23T11:13:43;19.90;63.20
40257;DHT22;25977;45.462;9.210;2023-03-23T11:16:10;19.90;63.00
40257;DHT22;25977;45.462;9.210;2023-03-23T11:18:42;20.10;63.70
40257;DHT22;25977;45.462;9.210;2023-03-23T11:21:11;20.00;63.00
40257;DHT22;25977;45.462;9.210;2023-03-23T11:23:40;20.00;63.10
40257;DHT22;25977;45.462;9.210;2023-03-23T11:26:25;20.10;63.00
40257;DHT22;25977;45.462;9.210;2023-03-23T11:28:58;20.10;63.20
40257;DHT22;25977;45.462;9.210;2023-03-23T11:31:34;20.20;63.50
40257;DHT22;25977;45.462;9.210;2023-03-23T11:34:04;20.20;63.40
40257;DHT22;25977;45.462;9.210;2023-03-23T11:36:43;20.10;63.10
40257;DHT22;25977;45.462;9.210;2023-03-23T11:39:28;20.20;63.20
40257;DHT22;25977;45.462;9.210;2023-03-23T11:41:57;20.20;63.90
40257;DHT22;25977;45.462;9.210;2023-03-23T11:44:24;20.20;63.70
40257;DHT22;25977;45.462;9.210;2023-03-23T11:50:00;20.30;63.30
40257;DHT22;25977;45.462;9.210;2023-03-23T11:52:42;20.30;63.10
40257;DHT22;25977;45.462;9.210;2023-03-23T11:55:19;20.30;63.20
40257;DHT22;25977;45.462;9.210;2023-03-23T11:57:46;20.20;62.90
40257;DHT22;25977;45.462;9.210;2023-03-23T12:00:18;20.30;63.20
40257;DHT22;25977;45.462;9.210;2023-03-23T12:03:05;20.20;63.30
40257;DHT22;25977;45.462;9.210;2023-03-23T12:11:20;20.60;64.20
40257;DHT22;25977;45.462;9.210;2023-03-23T12:14:19;20.80;63.40
40257;DHT22;25977;45.462;9.210;2023-03-23T12:22:06;20.80;63.50
40257;DHT22;25977;45.462;9.210;2023-03-23T12:32:58;20.80;62.70
40257;DHT22;25977;45.462;9.210;2023-03-23T12:38:45;21.00;62.40
40257;DHT22;25977;45.462;9.210;2023-03-23T12:44:13;21.10;62.10
40257;DHT22;25977;45.462;9.210;2023-03-23T12:46:46;21.30;62.70
40257;DHT22;25977;45.462;9.210;2023-03-23T12:51:58;21.10;61.90
40257;DHT22;25977;45.462;9.210;2023-03-23T12:54:32;21.20;62.00
40257;DHT22;25977;45.462;9.210;2023-03-23T12:57:02;21.30;62.00
40257;DHT22;25977;45.462;9.210;2023-03-23T12:59:37;21.40;62.20
40257;DHT22;25977;45.462;9.210;2023-03-23T13:02:31;21.40;61.80
40257;DHT22;25977;45.462;9.210;2023-03-23T13:05:26;21.50;61.80
40257;DHT22;25977;45.462;9.210;2023-03-23T13:08:01;21.60;62.10
40257;DHT22;25977;45.462;9.210;2023-03-23T13:10:54;21.50;61.60
40257;DHT22;25977;45.462;9.210;2023-03-23T13:13:40;21.50;61.70
40257;DHT22;25977;45.462;9.210;2023-03-23T13:19:29;21.30;61.90
40257;DHT22;25977;45.462;9.210;2023-03-23T13:22:19;21.40;61.40
40257;DHT22;25977;45.462;9.210;2023-03-23T13:24:58;21.60;61.20
40257;DHT22;25977;45.462;9.210;2023-03-23T13:27:27;21.60;61.20
40257;DHT22;25977;45.462;9.210;2023-03-23T13:29:54;21.70;61.20
40257;DHT22;25977;45.462;9.210;2023-03-23T13:32:23;21.70;60.50
40257;DHT22;25977;45.462;9.210;2023-03-23T13:34:54;21.70;60.30
40257;DHT22;25977;45.462;9.210;2023-03-23T13:37:25;21.70;60.60
40257;DHT22;25977;45.462;9.210;2023-03-23T13:39:57;21.80;60.70
40257;DHT22;25977;45.462;9.210;2023-03-23T13:42:29;21.80;60.90
40257;DHT22;25977;45.462;9.210;2023-03-23T13:45:23;21.90;60.90
40257;DHT22;25977;45.462;9.210;2023-03-23T13:48:01;21.90;61.00
40257;DHT22;25977;45.462;9.210;2023-03-23T13:50:29;21.90;60.40
40257;DHT22;25977;45.462;9.210;2023-03-23T13:53:01;21.90;60.20
40257;DHT22;25977;45.462;9.210;2023-03-23T13:55:50;21.90;60.40
40257;DHT22;25977;45.462;9.210;2023-03-23T13:58:26;21.80;60.60
40257;DHT22;25977;45.462;9.210;2023-03-23T14:01:12;21.80;60.60
40257;DHT22;25977;45.462;9.210;2023-03-23T14:03:44;21.80;60.70
40257;DHT22;25977;45.462;9.210;2023-03-23T14:06:14;21.90;60.70
40257;DHT22;25977;45.462;9.210;2023-03-23T14:09:09;21.90;60.40
40257;DHT22;25977;45.462;9.210;2023-03-23T14:11:46;21.90;60.40
40257;DHT22;25977;45.462;9.210;2023-03-23T14:14:50;21.90;60.80
40257;DHT22;25977;45.462;9.210;2023-03-23T14:17:21;21.90;60.20
40257;DHT22;25977;45.462;9.210;2023-03-23T14:19:52;20.50;59.20
40257;DHT22;25977;45.462;9.210;2023-03-23T14:22:28;21.70;60.30
40257;DHT22;25977;45.462;9.210;2023-03-23T14:27:36;21.60;60.10
40257;DHT22;25977;45.462;9.210;2023-03-23T14:30:08;21.50;60.40
40257;DHT22;25977;45.462;9.210;2023-03-23T14:32:34;21.50;60.40
40257;DHT22;25977;45.462;9.210;2023-03-23T14:35:06;21.50;60.20
40257;DHT22;25977;45.462;9.210;2023-03-23T14:37:32;21.60;60.20
40257;DHT22;25977;45.462;9.210;2023-03-23T14:40:01;21.50;60.30
40257;DHT22;25977;45.462;9.210;2023-03-23T14:42:32;21.50;60.40
40257;DHT22;25977;45.462;9.210;2023-03-23T14:44:59;21.50;59.80
40257;DHT22;25977;45.462;9.210;2023-03-23T14:47:33;21.40;59.90
40257;DHT22;25977;45.462;9.210;2023-03-23T14:50:01;21.30;60.30
40257;DHT22;25977;45.462;9.210;2023-03-23T14:52:32;21.10;60.30
40257;DHT22;25977;45.462;9.210;2023-03-23T14:55:12;21.30;60.40
40257;DHT22;25977;45.462;9.210;2023-03-23T14:57:41;21.40;60.50
40257;DHT22;25977;45.462;9.210;2023-03-23T15:00:35;21.40;60.40
40257;DHT22;25977;45.462;9.210;2023-03-23T15:03:04;21.40;60.30
40257;DHT22;25977;45.462;9.210;2023-03-23T15:05:34;21.40;60.30
40257;DHT22;25977;45.462;9.210;2023-03-23T15:08:13;21.40;60.10
40257;DHT22;25977;45.462;9.210;2023-03-23T15:10:39;21.30;60.00
40257;DHT22;25977;45.462;9.210;2023-03-23T15:13:05;21.30;60.10
40257;DHT22;25977;45.462;9.210;2023-03-23T15:15:35;21.20;60.10
40257;DHT22;25977;45.462;9.210;2023-03-23T15:18:02;21.30;60.00
40257;DHT22;25977;45.462;9.210;2023-03-23T15:23:13;21.30;59.80
40257;DHT22;25977;45.462;9.210;2023-03-23T15:25:40;21.20;59.60
40257;DHT22;25977;45.462;9.210;2023-03-23T15:28:28;21.20;60.20
40257;DHT22;25977;45.462;9.210;2023-03-23T15:30:56;21.30;60.30
40257;DHT22;25977;45.462;9.210;2023-03-23T15:33:24;21.40;60.40
40257;DHT22;25977;45.462;9.210;2023-03-23T15:35:55;21.30;60.10
40257;DHT22;25977;45.462;9.210;2023-03-23T15:38:39;21.30;60.00
40257;DHT22;25977;45.462;9.210;2023-03-23T15:41:23;21.30;60.40
40257;DHT22;25977;45.462;9.210;2023-03-23T15:43:54;21.40;60.70
40257;DHT22;25977;45.462;9.210;2023-03-23T15:46:25;21.20;60.60
40257;DHT22;25977;45.462;9.210;2023-03-23T15:51:29;21.20;60.50
40257;DHT22;25977;45.462;9.210;2023-03-23T15:53:56;21.20;60.60
40257;DHT22;25977;45.462;9.210;2023-03-23T15:56:23;21.20;60.80
40257;DHT22;25977;45.462;9.210;2023-03-23T15:58:50;21.20;60.80
40257;DHT22;25977;45.462;9.210;2023-03-23T16:01:22;21.30;60.70
40257;DHT22;25977;45.462;9.210;2023-03-23T16:04:20;21.10;60.60
40257;DHT22;25977;45.462;9.210;2023-03-23T16:06:47;21.10;60.80
40257;DHT22;25977;45.462;9.210;2023-03-23T16:09:18;21.10;61.00
40257;DHT22;25977;45.462;9.210;2023-03-23T16:11:44;20.90;61.00
40257;DHT22;25977;45.462;9.210;2023-03-23T16:14:10;21.00;61.10
40257;DHT22;25977;45.462;9.210;2023-03-23T16:16:37;21.00;61.10
40257;DHT22;25977;45.462;9.210;2023-03-23T16:19:03;21.00;61.20
40257;DHT22;25977;45.462;9.210;2023-03-23T16:21:30;21.00;61.20
40257;DHT22;25977;45.462;9.210;2023-03-23T16:23:56;20.90;61.10
40257;DHT22;25977;45.462;9.210;2023-03-23T16:26:22;21.20;61.30
40257;DHT22;25977;45.462;9.210;2023-03-23T16:28:48;21.00;61.20
40257;DHT22;25977;45.462;9.210;2023-03-23T16:31:14;21.00;61.20
40257;DHT22;25977;45.462;9.210;2023-03-23T16:33:40;20.90;61.30
40257;DHT22;25977;45.462;9.210;2023-03-23T16:36:06;20.90;61.40
40257;DHT22;25977;45.462;9.210;2023-03-23T16:38:32;20.90;61.60
40257;DHT22;25977;45.462;9.210;2023-03-23T16:40:57;20.90;61.70
40257;DHT22;25977;45.462;9.210;2023-03-23T16:43:23;20.80;61.70
40257;DHT22;25977;45.462;9.210;2023-03-23T16:45:49;20.70;61.70
40257;DHT22;25977;45.462;9.210;2023-03-23T16:48:15;20.60;61.80
40257;DHT22;25977;45.462;9.210;2023-03-23T16:50:42;20.60;61.90
40257;DHT22;25977;45.462;9.210;2023-03-23T16:53:09;20.60;62.00
40257;DHT22;25977;45.462;9.210;2023-03-23T16:55:35;20.60;62.10
40257;DHT22;25977;45.462;9.210;2023-03-23T16:58:02;20.50;62.30
40257;DHT22;25977;45.462;9.210;2023-03-23T17:00:28;20.60;62.40
40257;DHT22;25977;45.462;9.210;2023-03-23T17:02:55;20.40;62.30
40257;DHT22;25977;45.462;9.210;2023-03-23T17:05:26;20.40;62.10
40257;DHT22;25977;45.462;9.210;2023-03-23T17:07:53;20.40;62.00